Time;durP1;ratioP1;P1;durP2;ratioP2;P2;SDS_P1;SDS_P2;PMS_P1;PMS_P2;Temp;Humidity;BMP_temperature;BMP_pressure;BME280_temperature;BME280_humidity;BME280_pressure;Samples;Min_cycle;Max_cycle;Signal;HPM_P1;HPM_P2
2022/01/07 00:01:01;;;;;;;0.47;0.47;;;2.20;99.90;;;;;;5051086;28;20178;-74
2022/01/07 00:03:27;;;;;;;0.67;0.67;;;2.20;99.90;;;;;;5057444;28;20267;-74
2022/01/07 00:05:52;;;;;;;0.50;0.47;;;2.20;99.90;;;;;;5051907;28;20177;-74
2022/01/07 00:08:18;;;;;;;0.60;0.60;;;2.20;99.90;;;;;;5056932;28;20186;-76
2022/01/07 00:10:43;;;;;;;0.17;0.17;;;2.20;99.90;;;;;;5056510;28;20201;-73
2022/01/07 00:13:11;;;;;;;0.20;0.20;;;2.30;99.90;;;;;;5038885;28;20201;-74
2022/01/07 00:15:37;;;;;;;0.50;0.50;;;2.30;99.90;;;;;;5058239;28;21031;-74
2022/01/07 00:18:02;;;;;;;13.10;1.70;;;2.30;99.90;;;;;;5058124;28;20260;-75
2022/01/07 00:20:28;;;;;;;0.33;0.27;;;2.30;99.90;;;;;;5039460;28;20205;-77
2022/01/07 00:22:54;;;;;;;0.53;0.53;;;2.30;99.90;;;;;;5056754;28;20588;-75
2022/01/07 00:25:22;;;;;;;0.37;0.37;;;2.30;99.90;;;;;;5057460;28;20572;-75
2022/01/07 00:27:47;;;;;;;9.90;2.70;;;2.30;99.90;;;;;;5059522;28;20196;-75
2022/01/07 00:30:15;;;;;;;0.63;0.63;;;2.30;99.90;;;;;;5060346;28;20206;-75
2022/01/07 00:32:40;;;;;;;0.10;0.10;;;2.30;99.90;;;;;;5060245;28;20613;-74
2022/01/07 00:35:07;;;;;;;0.70;0.67;;;2.40;99.90;;;;;;5060351;28;20227;-75
2022/01/07 00:37:33;;;;;;;0.83;0.80;;;2.40;99.90;;;;;;5041982;28;20181;-74
2022/01/07 00:39:59;;;;;;;0.10;0.10;;;2.30;99.90;;;;;;5059199;28;20185;-73
2022/01/07 00:42:25;;;;;;;9.50;0.87;;;2.40;99.90;;;;;;5041064;28;20202;-74
2022/01/07 00:44:50;;;;;;;0.10;0.10;;;2.40;99.90;;;;;;5058354;28;20445;-74
2022/01/07 00:47:16;;;;;;;0.83;0.83;;;2.40;99.90;;;;;;5058512;28;20183;-73
2022/01/07 00:49:42;;;;;;;0.00;0.00;;;2.40;99.90;;;;;;5040795;28;20178;-73
2022/01/07 00:52:08;;;;;;;0.00;0.00;;;2.40;99.90;;;;;;5040000;28;20213;-73
2022/01/07 00:54:34;;;;;;;0.67;0.67;;;2.50;99.90;;;;;;5058382;28;20185;-74
2022/01/07 00:56:59;;;;;;;2.33;1.20;;;2.40;99.90;;;;;;5057460;28;20186;-77
2022/01/07 00:59:25;;;;;;;1.07;1.07;;;2.50;99.90;;;;;;5056784;28;20173;-73
2022/01/07 01:01:50;;;;;;;7.83;2.13;;;2.50;99.90;;;;;;5058629;28;20286;-74
2022/01/07 01:04:17;;;;;;;0.20;0.20;;;2.50;99.90;;;;;;5041482;28;20719;-74
2022/01/07 01:06:42;;;;;;;1.67;1.57;;;2.50;99.90;;;;;;5059970;28;20179;-74
2022/01/07 01:09:09;;;;;;;0.33;0.33;;;2.50;99.90;;;;;;5042967;28;20624;-73
2022/01/07 01:11:35;;;;;;;0.87;0.50;;;2.50;99.90;;;;;;5060734;28;20221;-74
2022/01/07 01:14:01;;;;;;;1.83;1.73;;;2.50;99.90;;;;;;5062740;28;20217;-73
2022/01/07 01:16:26;;;;;;;1.97;0.73;;;2.50;99.90;;;;;;5064425;28;20186;-74
2022/01/07 01:18:52;;;;;;;0.30;0.30;;;2.50;99.90;;;;;;5066797;28;20182;-74
2022/01/07 01:21:17;;;;;;;1.50;1.40;;;2.50;99.90;;;;;;5057445;28;20261;-73
2022/01/07 01:23:45;;;;;;;0.10;0.10;;;2.50;99.90;;;;;;5054993;28;20258;-74
2022/01/07 01:26:12;;;;;;;3.13;1.43;;;2.50;99.90;;;;;;5032559;28;20581;-74
2022/01/07 01:28:37;;;;;;;0.73;0.73;;;2.60;99.90;;;;;;5032089;28;20183;-74
2022/01/07 01:31:03;;;;;;;0.10;0.10;;;2.60;99.90;;;;;;5032993;28;20288;-74
2022/01/07 01:33:28;;;;;;;0.10;0.10;;;2.70;99.90;;;;;;5032875;28;20202;-74
2022/01/07 01:35:54;;;;;;;0.10;0.10;;;2.70;99.90;;;;;;5034090;28;20236;-75
2022/01/07 01:38:20;;;;;;;0.23;0.23;;;2.80;99.90;;;;;;5036090;28;20267;-73
2022/01/07 01:40:45;;;;;;;0.10;0.10;;;2.80;99.90;;;;;;5035782;28;20655;-74
2022/01/07 01:43:11;;;;;;;0.63;0.63;;;2.80;99.90;;;;;;5031793;28;20206;-74
2022/01/07 01:45:37;;;;;;;0.47;0.47;;;2.90;99.90;;;;;;5031874;28;20340;-74
2022/01/07 01:48:02;;;;;;;0.63;0.63;;;2.90;99.90;;;;;;5033967;28;20466;-73
2022/01/07 01:50:28;;;;;;;0.20;0.20;;;2.90;99.90;;;;;;5032168;28;20207;-74
2022/01/07 01:52:56;;;;;;;0.83;0.83;;;2.90;99.90;;;;;;5031663;28;20203;-73
2022/01/07 01:55:24;;;;;;;1.03;0.93;;;2.90;99.90;;;;;;5032969;28;20665;-72
2022/01/07 01:57:52;;;;;;;0.40;0.40;;;2.90;99.90;;;;;;5032807;28;20270;-73
2022/01/07 02:00:20;;;;;;;0.30;0.30;;;2.90;99.90;;;;;;5032450;28;20180;-73
2022/01/07 02:02:46;;;;;;;0.10;0.10;;;2.90;99.90;;;;;;5033551;28;20200;-74
2022/01/07 02:05:12;;;;;;;0.77;0.77;;;2.80;99.90;;;;;;5034528;28;20401;-75
2022/01/07 02:07:40;;;;;;;0.10;0.10;;;2.80;99.90;;;;;;5033711;28;20183;-74
2022/01/07 02:10:11;;;;;;;0.53;0.53;;;2.90;99.90;;;;;;5033420;28;20214;-75
2022/01/07 02:12:37;;;;;;;0.53;0.53;;;2.90;99.90;;;;;;5033417;28;20214;-75
2022/01/07 02:15:04;;;;;;;0.27;0.27;;;2.90;99.90;;;;;;5034683;28;20664;-75
2022/01/07 02:17:29;;;;;;;1.03;1.00;;;2.90;99.90;;;;;;5033264;28;20179;-75
2022/01/07 02:19:55;;;;;;;1.70;1.60;;;2.90;99.90;;;;;;5033998;28;20237;-74
2022/01/07 02:22:23;;;;;;;0.20;0.20;;;2.80;99.90;;;;;;5033358;28;20207;-75
2022/01/07 02:24:51;;;;;;;2.67;1.23;;;2.80;99.90;;;;;;5038907;28;20565;-75
2022/01/07 02:27:17;;;;;;;0.10;0.10;;;2.80;99.90;;;;;;5054285;28;20186;-75
2022/01/07 02:29:46;;;;;;;1.70;1.60;;;2.80;99.90;;;;;;5054612;28;20181;-75
2022/01/07 02:32:11;;;;;;;0.10;0.10;;;2.80;99.90;;;;;;5053978;28;20210;-75
2022/01/07 02:34:37;;;;;;;0.83;0.83;;;2.80;99.90;;;;;;5036295;28;20190;-75
2022/01/07 02:37:03;;;;;;;0.00;0.00;;;2.80;99.90;;;;;;5055351;28;20678;-74
2022/01/07 02:39:29;;;;;;;2.20;2.03;;;2.70;99.90;;;;;;5056038;28;20257;-75
2022/01/07 02:41:55;;;;;;;0.90;0.90;;;2.70;99.90;;;;;;5036696;28;20680;-75
2022/01/07 02:44:20;;;;;;;0.60;0.57;;;2.70;99.90;;;;;;5058663;28;20260;-74
2022/01/07 02:46:46;;;;;;;0.70;0.70;;;2.70;99.90;;;;;;5041859;28;20188;-75
2022/01/07 02:49:13;;;;;;;1.00;0.33;;;2.60;99.90;;;;;;5060320;28;20616;-74
2022/01/07 02:51:40;;;;;;;0.93;0.53;;;2.70;99.90;;;;;;5058458;28;20276;-74
2022/01/07 02:54:06;;;;;;;0.00;0.00;;;2.60;99.90;;;;;;5058237;28;20229;-74
2022/01/07 02:56:33;;;;;;;0.37;0.37;;;2.60;99.90;;;;;;5040958;28;20240;-74
2022/01/07 02:58:58;;;;;;;3.90;1.67;;;2.50;99.90;;;;;;5058520;28;20662;-74
2022/01/07 03:01:24;;;;;;;3.47;1.13;;;2.50;99.90;;;;;;5059054;28;20184;-75
2022/01/07 03:03:50;;;;;;;0.90;0.90;;;2.50;99.90;;;;;;5040146;28;20293;-74
2022/01/07 03:06:15;;;;;;;0.10;0.10;;;2.40;99.90;;;;;;5058622;28;20181;-74
2022/01/07 03:08:45;;;;;;;0.00;0.00;;;2.40;99.90;;;;;;5059509;28;20178;-74
2022/01/07 03:11:10;;;;;;;0.13;0.13;;;2.40;99.90;;;;;;5058009;28;20217;-74
2022/01/07 03:13:36;;;;;;;0.57;0.57;;;2.40;99.90;;;;;;5041140;28;20209;-74
2022/01/07 03:16:01;;;;;;;0.10;0.10;;;2.30;99.90;;;;;;5060258;28;20181;-73
2022/01/07 03:18:27;;;;;;;1.50;1.40;;;2.30;99.90;;;;;;5060951;28;20227;-73
2022/01/07 03:20:52;;;;;;;0.00;0.00;;;2.30;99.90;;;;;;5055767;28;20180;-73
2022/01/07 03:23:18;;;;;;;0.80;0.80;;;2.30;99.90;;;;;;5056078;28;20202;-72
2022/01/07 03:25:46;;;;;;;0.70;0.70;;;2.30;99.90;;;;;;5035394;28;20672;-74
2022/01/07 03:28:12;;;;;;;0.00;0.00;;;2.30;99.90;;;;;;5037079;28;20179;-73
2022/01/07 03:30:38;;;;;;;20.10;2.13;;;2.30;99.90;;;;;;5037267;28;20198;-74
2022/01/07 03:33:04;;;;;;;1.13;1.07;;;2.30;99.90;;;;;;5039167;28;20253;-75
2022/01/07 03:35:30;;;;;;;0.00;0.00;;;2.30;99.90;;;;;;5038652;28;20205;-74
2022/01/07 03:37:55;;;;;;;0.23;0.23;;;2.30;99.90;;;;;;5038341;28;20182;-74
2022/01/07 03:40:21;;;;;;;2.83;1.00;;;2.30;99.90;;;;;;5035887;28;20189;-74
2022/01/07 03:42:49;;;;;;;7.53;1.53;;;2.30;99.90;;;;;;5036703;28;20208;-75
2022/01/07 03:45:15;;;;;;;1.60;1.60;;;2.20;99.90;;;;;;5036328;28;20228;-73
2022/01/07 03:47:41;;;;;;;0.00;0.00;;;2.20;99.90;;;;;;5036328;28;20261;-74
2022/01/07 03:50:10;;;;;;;0.40;0.40;;;2.20;99.90;;;;;;5035037;28;20205;-74
2022/01/07 03:52:36;;;;;;;1.23;0.67;;;2.20;99.90;;;;;;5034499;28;20198;-74
2022/01/07 03:55:04;;;;;;;0.10;0.10;;;2.30;99.90;;;;;;5035071;28;20184;-73
2022/01/07 03:57:29;;;;;;;2.60;2.40;;;2.30;99.90;;;;;;5034954;28;20206;-74
2022/01/07 03:59:55;;;;;;;0.33;0.13;;;2.30;99.90;;;;;;5036786;28;20174;-74
2022/01/07 04:02:20;;;;;;;0.37;0.37;;;2.30;99.90;;;;;;5036203;28;20252;-74
2022/01/07 04:04:46;;;;;;;0.20;0.20;;;2.40;99.90;;;;;;5036629;28;20265;-74
2022/01/07 04:07:12;;;;;;;0.10;0.10;;;2.40;99.90;;;;;;5037203;28;20194;-74
2022/01/07 04:09:37;;;;;;;3.00;2.50;;;2.50;99.90;;;;;;5034652;28;20596;-74
2022/01/07 04:12:04;;;;;;;0.37;0.37;;;2.50;99.90;;;;;;5035116;28;20214;-75
2022/01/07 04:14:29;;;;;;;3.57;0.80;;;2.50;99.90;;;;;;5035225;28;20673;-75
2022/01/07 04:16:55;;;;;;;0.77;0.77;;;2.50;99.90;;;;;;5035433;28;20182;-74
2022/01/07 04:19:21;;;;;;;0.20;0.20;;;2.60;99.90;;;;;;5035710;28;20210;-74
2022/01/07 04:21:49;;;;;;;0.40;0.40;;;2.60;99.90;;;;;;5033714;28;20184;-74
2022/01/07 04:24:14;;;;;;;0.83;0.63;;;2.70;99.90;;;;;;5034109;28;20198;-75
2022/01/07 04:26:40;;;;;;;2.63;0.40;;;2.80;99.90;;;;;;5055763;28;20186;-75
2022/01/07 04:29:05;;;;;;;0.00;0.00;;;2.90;99.90;;;;;;5056659;28;20211;-75
2022/01/07 04:31:31;;;;;;;0.10;0.10;;;3.00;99.90;;;;;;5055739;28;20210;-74
2022/01/07 04:33:57;;;;;;;2.57;2.37;;;3.00;99.90;;;;;;5037841;28;20207;-74
2022/01/07 04:36:22;;;;;;;0.87;0.87;;;3.10;99.90;;;;;;5056065;28;20247;-74
2022/01/07 04:38:48;;;;;;;0.10;0.10;;;3.20;99.90;;;;;;5055089;28;20187;-74
2022/01/07 04:41:14;;;;;;;0.30;0.30;;;3.20;99.90;;;;;;5055797;28;20397;-74
2022/01/07 04:43:39;;;;;;;0.10;0.10;;;3.20;99.90;;;;;;5055493;28;20199;-74
2022/01/07 04:46:05;;;;;;;0.10;0.10;;;3.30;99.90;;;;;;5037549;28;20184;-75
2022/01/07 04:48:31;;;;;;;1.07;0.97;;;3.30;99.90;;;;;;5055252;28;20180;-75
2022/01/07 04:50:56;;;;;;;0.00;0.00;;;3.30;99.90;;;;;;5037612;28;20243;-75
2022/01/07 04:53:22;;;;;;;0.23;0.23;;;3.30;99.90;;;;;;5058381;28;20203;-74
2022/01/07 04:55:48;;;;;;;0.00;0.00;;;3.30;99.90;;;;;;5062792;28;20181;-75
2022/01/07 04:58:14;;;;;;;0.10;0.10;;;3.30;99.90;;;;;;5066753;28;20190;-75
2022/01/07 05:00:42;;;;;;;0.30;0.30;;;3.30;99.90;;;;;;5060777;28;20238;-75
2022/01/07 05:03:08;;;;;;;0.30;0.30;;;3.30;99.90;;;;;;5059085;28;20641;-74
2022/01/07 05:05:34;;;;;;;0.00;0.00;;;3.30;99.90;;;;;;5058261;28;20249;-75
2022/01/07 05:08:00;;;;;;;0.20;0.20;;;3.30;99.90;;;;;;5059413;28;20180;-76
2022/01/07 05:10:26;;;;;;;0.00;0.00;;;3.40;99.90;;;;;;5060003;28;20195;-75
2022/01/07 05:12:51;;;;;;;1.50;1.40;;;3.30;99.90;;;;;;5058734;28;20195;-75
2022/01/07 05:15:18;;;;;;;0.20;0.20;;;3.30;99.90;;;;;;5040904;28;20186;-75
2022/01/07 05:17:44;;;;;;;0.10;0.10;;;3.30;99.90;;;;;;5059125;28;20187;-75
2022/01/07 05:20:11;;;;;;;0.00;0.00;;;3.30;99.90;;;;;;5059692;28;20184;-75
2022/01/07 05:22:37;;;;;;;0.00;0.00;;;3.30;99.90;;;;;;5041737;28;20199;-76
2022/01/07 05:25:07;;;;;;;0.33;0.33;;;3.20;99.90;;;;;;5039052;28;20196;-75
2022/01/07 05:27:33;;;;;;;5.10;0.67;;;3.20;99.90;;;;;;5037928;28;20247;-74
2022/01/07 05:29:58;;;;;;;0.60;0.60;;;3.20;99.90;;;;;;5038074;28;20579;-76
2022/01/07 05:32:24;;;;;;;0.03;0.03;;;3.20;99.90;;;;;;5039369;28;20215;-75
2022/01/07 05:34:50;;;;;;;0.20;0.20;;;3.20;99.90;;;;;;5039630;28;20234;-76
2022/01/07 05:37:15;;;;;;;0.00;0.00;;;3.20;99.90;;;;;;5039635;28;20181;-75
2022/01/07 05:39:41;;;;;;;0.40;0.40;;;3.20;99.90;;;;;;5037418;28;20544;-76
2022/01/07 05:42:07;;;;;;;0.00;0.00;;;3.20;99.90;;;;;;5036607;28;20200;-75
2022/01/07 05:44:33;;;;;;;0.10;0.10;;;3.10;99.90;;;;;;5035506;28;20659;-75
2022/01/07 05:46:58;;;;;;;1.30;0.77;;;3.10;99.90;;;;;;5035807;28;20239;-75
2022/01/07 05:49:24;;;;;;;0.47;0.47;;;3.10;99.90;;;;;;5040612;28;20191;-75
2022/01/07 05:51:50;;;;;;;0.10;0.10;;;3.10;99.90;;;;;;5039913;28;20718;-75
2022/01/07 05:54:15;;;;;;;0.20;0.20;;;3.00;99.90;;;;;;5039307;28;20547;-76
2022/01/07 05:56:41;;;;;;;0.83;0.83;;;3.00;99.90;;;;;;5034260;28;20181;-74
2022/01/07 05:59:07;;;;;;;0.20;0.20;;;2.90;99.90;;;;;;5033234;28;20194;-73
2022/01/07 06:01:32;;;;;;;0.10;0.10;;;2.90;99.90;;;;;;5034224;28;20536;-75
2022/01/07 06:03:58;;;;;;;0.00;0.00;;;2.80;99.90;;;;;;5032276;28;20213;-74
2022/01/07 06:06:24;;;;;;;0.00;0.00;;;2.80;99.90;;;;;;5021474;28;20189;-75
2022/01/07 06:08:50;;;;;;;0.00;0.00;;;2.80;99.90;;;;;;5035342;28;20188;-75
2022/01/07 06:11:15;;;;;;;0.60;0.60;;;2.80;99.90;;;;;;5033974;28;20642;-74
2022/01/07 06:13:41;;;;;;;0.30;0.30;;;2.70;99.90;;;;;;5033050;28;20227;-75
2022/01/07 06:16:07;;;;;;;0.10;0.10;;;2.70;99.90;;;;;;5025514;28;20175;-74
2022/01/07 06:18:33;;;;;;;0.00;0.00;;;2.70;99.90;;;;;;5027894;28;20374;-74
2022/01/07 06:20:58;;;;;;;0.40;0.40;;;2.80;99.90;;;;;;5031044;28;20250;-75
2022/01/07 06:23:24;;;;;;;2.57;1.63;;;2.80;99.90;;;;;;5032952;28;20555;-74
2022/01/07 06:25:50;;;;;;;1.97;0.77;;;2.80;99.90;;;;;;5046485;28;20199;-74
2022/01/07 06:28:17;;;;;;;0.10;0.10;;;2.80;99.90;;;;;;5053956;28;20616;-75
2022/01/07 06:30:43;;;;;;;0.63;0.63;;;2.80;99.90;;;;;;5053831;28;20595;-74
2022/01/07 06:33:08;;;;;;;0.83;0.40;;;2.80;99.90;;;;;;5053787;28;20390;-74
2022/01/07 06:35:34;;;;;;;0.00;0.00;;;2.90;99.90;;;;;;5057400;28;20669;-73
2022/01/07 06:38:00;;;;;;;0.20;0.20;;;2.90;99.90;;;;;;5072071;22;20223;-76
2022/01/07 06:40:26;;;;;;;0.20;0.20;;;2.90;99.90;;;;;;5050645;28;20228;-75
2022/01/07 06:42:51;;;;;;;0.00;0.00;;;2.90;99.90;;;;;;5050367;28;20227;-73
2022/01/07 06:45:17;;;;;;;0.67;0.67;;;2.90;99.90;;;;;;5051079;28;20192;-76
2022/01/07 06:47:43;;;;;;;4.83;0.53;;;3.00;99.90;;;;;;5050861;28;20231;-76
2022/01/07 06:50:09;;;;;;;0.40;0.40;;;2.90;99.90;;;;;;5051168;28;20550;-76
2022/01/07 06:52:34;;;;;;;0.00;0.00;;;3.00;99.90;;;;;;5049700;28;20528;-76
2022/01/07 06:55:00;;;;;;;0.20;0.20;;;3.00;99.90;;;;;;5050696;28;20183;-77
2022/01/07 06:57:26;;;;;;;0.00;0.00;;;3.00;99.90;;;;;;5028973;28;20287;-77
2022/01/07 06:59:51;;;;;;;0.00;0.00;;;3.00;99.90;;;;;;5029546;28;20279;-76
2022/01/07 07:02:17;;;;;;;1.80;1.70;;;3.00;99.90;;;;;;5042486;28;20175;-76
2022/01/07 07:04:44;;;;;;;0.10;0.10;;;3.00;99.90;;;;;;5050798;28;20843;-77
2022/01/07 07:07:10;;;;;;;0.10;0.10;;;3.00;99.90;;;;;;5049858;28;20698;-76
2022/01/07 07:09:36;;;;;;;0.13;0.13;;;3.00;99.90;;;;;;5029316;28;20196;-76
2022/01/07 07:12:01;;;;;;;0.73;0.20;;;3.00;99.90;;;;;;5043248;28;20207;-76
2022/01/07 07:14:27;;;;;;;0.00;0.00;;;3.00;99.90;;;;;;5050755;28;20520;-76
2022/01/07 07:16:53;;;;;;;0.73;0.73;;;3.00;99.90;;;;;;5050398;28;20221;-76
2022/01/07 07:19:18;;;;;;;0.20;0.20;;;3.00;99.90;;;;;;5050484;28;20183;-75
2022/01/07 07:21:44;;;;;;;0.00;0.00;;;3.00;99.90;;;;;;5050139;28;20626;-76
2022/01/07 07:24:09;;;;;;;0.00;0.00;;;3.10;99.90;;;;;;5051616;28;20183;-75
2022/01/07 07:26:35;;;;;;;0.00;0.00;;;3.10;99.90;;;;;;5050565;28;20179;-76
2022/01/07 07:29:00;;;;;;;0.10;0.10;;;3.10;99.90;;;;;;5029067;28;20212;-76
2022/01/07 07:31:26;;;;;;;0.00;0.00;;;3.20;99.90;;;;;;5045743;28;20195;-74
2022/01/07 07:36:27;;;;;;;0.10;0.10;;;3.30;99.90;;;;;;5053476;28;20539;-74
2022/01/07 07:38:53;;;;;;;0.40;0.40;;;3.40;99.90;;;;;;5053695;28;20222;-73
2022/01/07 07:41:19;;;;;;;0.00;0.00;;;3.40;99.90;;;;;;5032863;28;20665;-74
2022/01/07 07:43:47;;;;;;;0.30;0.30;;;3.50;99.90;;;;;;5053618;28;20175;-73
2022/01/07 07:46:13;;;;;;;0.10;0.10;;;3.50;99.90;;;;;;5032958;28;20272;-75
2022/01/07 07:48:39;;;;;;;0.10;0.10;;;3.50;99.90;;;;;;5032157;28;20198;-75
2022/01/07 07:51:04;;;;;;;0.10;0.10;;;3.50;99.90;;;;;;5047429;28;20208;-75
2022/01/07 07:53:30;;;;;;;4.80;1.03;;;3.50;99.90;;;;;;5053260;28;20187;-75
2022/01/07 07:55:56;;;;;;;0.07;0.07;;;3.50;99.90;;;;;;5053722;28;20170;-74
2022/01/07 07:58:22;;;;;;;0.10;0.10;;;3.50;99.90;;;;;;5053301;28;20250;-75
2022/01/07 08:00:49;;;;;;;0.00;0.00;;;3.40;99.90;;;;;;5053525;28;20200;-75
2022/01/07 08:03:15;;;;;;;0.07;0.07;;;3.40;99.90;;;;;;5053198;28;20188;-74
2022/01/07 08:05:40;;;;;;;0.00;0.00;;;3.40;99.90;;;;;;5053137;28;20275;-75
2022/01/07 08:08:06;;;;;;;0.40;0.40;;;3.40;99.90;;;;;;5053326;28;20347;-75
2022/01/07 08:10:32;;;;;;;0.00;0.00;;;3.50;99.90;;;;;;5053369;28;20203;-75
2022/01/07 08:18:20;;;;;;;0.00;0.00;;;3.50;99.90;;;;;;5053148;28;20616;-75
2022/01/07 08:20:46;;;;;;;0.00;0.00;;;3.60;99.90;;;;;;5052682;28;20181;-75
2022/01/07 08:23:12;;;;;;;0.73;0.37;;;3.60;99.90;;;;;;5052765;28;20197;-75
2022/01/07 08:25:38;;;;;;;0.00;0.00;;;3.60;99.90;;;;;;5052993;28;20210;-75
2022/01/07 08:28:05;;;;;;;0.53;0.50;;;3.60;99.90;;;;;;5052832;28;20246;-75
2022/01/07 08:30:57;;;;;;;0.00;0.00;;;3.60;99.90;;;;;;5053023;28;20180;-75
2022/01/07 08:36:07;;;;;;;0.27;0.27;;;3.70;99.90;;;;;;5053060;28;20227;-75
2022/01/07 08:38:32;;;;;;;0.00;0.00;;;3.70;99.90;;;;;;5052614;28;20216;-75
2022/01/07 08:40:58;;;;;;;0.10;0.10;;;3.80;99.90;;;;;;5031417;28;20178;-76
2022/01/07 08:43:24;;;;;;;0.43;0.43;;;3.80;99.90;;;;;;5049335;28;20754;-74
2022/01/07 08:45:50;;;;;;;0.00;0.00;;;3.90;99.90;;;;;;5054224;28;20288;-75
2022/01/07 08:48:15;;;;;;;0.00;0.00;;;3.90;99.90;;;;;;5052426;28;20552;-75
2022/01/07 08:50:41;;;;;;;0.00;0.00;;;3.90;99.90;;;;;;5052759;28;20226;-75
2022/01/07 08:53:06;;;;;;;0.10;0.10;;;4.00;99.90;;;;;;5051613;28;20180;-75
2022/01/07 08:55:33;;;;;;;0.00;0.00;;;4.00;99.90;;;;;;5052591;28;20173;-74
2022/01/07 08:57:58;;;;;;;0.00;0.00;;;4.00;99.90;;;;;;5052343;28;20571;-74
2022/01/07 09:00:24;;;;;;;0.00;0.00;;;4.10;99.90;;;;;;5052289;28;20169;-74
2022/01/07 09:02:50;;;;;;;0.10;0.10;;;4.10;99.90;;;;;;5052243;28;20188;-74
2022/01/07 09:05:15;;;;;;;0.10;0.10;;;4.10;99.90;;;;;;5052570;28;20520;-74
2022/01/07 09:07:41;;;;;;;0.00;0.00;;;4.10;99.90;;;;;;5052250;28;20204;-75
2022/01/07 09:10:07;;;;;;;0.10;0.10;;;4.10;99.90;;;;;;5052328;28;20207;-74
2022/01/07 09:12:32;;;;;;;0.10;0.10;;;4.10;99.90;;;;;;5052086;28;20247;-74
2022/01/07 09:14:58;;;;;;;0.00;0.00;;;4.20;99.90;;;;;;5052294;28;20177;-74
2022/01/07 09:17:23;;;;;;;0.00;0.00;;;4.20;99.90;;;;;;5052215;28;20192;-74
2022/01/07 09:19:49;;;;;;;1.40;1.30;;;4.20;99.90;;;;;;5052182;28;20243;-74
2022/01/07 09:22:15;;;;;;;0.00;0.00;;;4.20;99.90;;;;;;5030452;28;20230;-75
2022/01/07 09:24:40;;;;;;;0.00;0.00;;;4.20;99.90;;;;;;5042033;28;20657;-75
2022/01/07 09:27:06;;;;;;;0.13;0.13;;;4.20;99.90;;;;;;5051914;28;20796;-75
2022/01/07 09:29:31;;;;;;;0.00;0.00;;;4.20;99.90;;;;;;5051869;28;20209;-75
2022/01/07 09:31:57;;;;;;;0.23;0.23;;;4.20;99.90;;;;;;5051503;28;20201;-74
2022/01/07 09:34:23;;;;;;;0.53;0.27;;;4.20;99.90;;;;;;5051785;28;20181;-75
2022/01/07 09:36:48;;;;;;;0.20;0.20;;;4.20;99.90;;;;;;5051626;28;20570;-75
2022/01/07 09:39:14;;;;;;;0.00;0.00;;;4.20;99.90;;;;;;5051734;28;20665;-74
2022/01/07 09:41:40;;;;;;;0.10;0.10;;;4.20;99.90;;;;;;5032785;28;20655;-74
2022/01/07 09:44:15;;;;;;;0.23;0.23;;;4.20;99.90;;;;;;5030515;28;20189;-75
2022/01/07 09:46:41;;;;;;;0.00;0.00;;;4.20;99.90;;;;;;5049323;28;20238;-74
2022/01/07 09:49:07;;;;;;;0.10;0.10;;;4.20;99.90;;;;;;5051021;28;20722;-75
2022/01/07 09:51:35;;;;;;;0.00;0.00;;;4.20;99.90;;;;;;5050915;28;20284;-74
2022/01/07 09:54:05;;;;;;;0.00;0.00;;;4.20;99.90;;;;;;5051309;28;20181;-75
2022/01/07 09:56:31;;;;;;;0.10;0.10;;;;;;;;;;5051453;28;20180;-75
2022/01/07 09:58:57;;;;;;;0.10;0.10;;;;;;;;;;5051196;28;20196;-74
2022/01/07 10:01:25;;;;;;;0.00;0.00;;;4.00;99.90;;;;;;5051131;28;20181;-74
2022/01/07 10:03:51;;;;;;;0.77;0.77;;;4.20;99.90;;;;;;5051402;28;20591;-74
2022/01/07 10:06:20;;;;;;;0.00;0.00;;;4.20;99.90;;;;;;5051409;28;20184;-75
2022/01/07 10:09:07;;;;;;;0.20;0.20;;;4.20;99.90;;;;;;5052929;28;20208;-74
2022/01/07 10:11:33;;;;;;;0.00;0.00;;;4.20;99.90;;;;;;5050624;28;20195;-75
2022/01/07 10:14:22;;;;;;;0.47;0.47;;;4.30;99.90;;;;;;5051218;28;20204;-74
2022/01/07 10:16:54;;;;;;;0.30;0.30;;;4.40;99.90;;;;;;5029978;28;20193;-74
2022/01/07 10:19:38;;;;;;;0.00;0.00;;;4.50;99.90;;;;;;5050342;28;20199;-74
2022/01/07 10:22:07;;;;;;;0.00;0.00;;;4.60;99.90;;;;;;5051900;28;20179;-74
2022/01/07 10:24:55;;;;;;;0.00;0.00;;;4.60;99.90;;;;;;5051405;28;20189;-74
2022/01/07 10:27:22;;;;;;;0.60;0.60;;;4.60;99.90;;;;;;5051147;28;20343;-75
2022/01/07 10:29:48;;;;;;;0.53;0.53;;;4.70;99.90;;;;;;5051368;28;20181;-74
2022/01/07 10:32:29;;;;;;;0.00;0.00;;;4.70;99.90;;;;;;5050488;28;20212;-75
2022/01/07 10:35:17;;;;;;;0.00;0.00;;;4.70;99.90;;;;;;5050928;28;20594;-75
2022/01/07 10:37:53;;;;;;;0.00;0.00;;;4.70;99.90;;;;;;5050899;28;20220;-75
2022/01/07 10:40:39;;;;;;;0.00;0.00;;;4.90;99.90;;;;;;5051059;28;20176;-75
2022/01/07 10:43:15;;;;;;;0.33;0.33;;;4.90;99.90;;;;;;5030336;28;20178;-75
2022/01/07 10:45:47;;;;;;;0.20;0.20;;;4.90;99.90;;;;;;5050992;28;20173;-74
2022/01/07 10:48:13;;;;;;;0.00;0.00;;;4.80;99.90;;;;;;5029823;28;20700;-75
2022/01/07 10:50:41;;;;;;;0.00;0.00;;;4.80;99.90;;;;;;5041100;28;20212;-75
2022/01/07 10:53:24;;;;;;;0.60;0.60;;;4.90;99.90;;;;;;5050652;28;20256;-75
2022/01/07 10:55:58;;;;;;;0.67;0.40;;;5.30;99.90;;;;;;5051223;28;20584;-72
2022/01/07 10:58:24;;;;;;;0.13;0.13;;;5.60;99.90;;;;;;5051269;28;20205;-73
2022/01/07 11:00:49;;;;;;;0.00;0.00;;;5.80;99.90;;;;;;5030272;28;20232;-73
2022/01/07 11:03:15;;;;;;;0.00;0.00;;;6.00;99.90;;;;;;5050729;28;20234;-73
2022/01/07 11:05:42;;;;;;;0.10;0.10;;;6.20;99.90;;;;;;5054474;28;20188;-73
2022/01/07 11:08:08;;;;;;;0.00;0.00;;;6.40;99.90;;;;;;5033833;28;20206;-73
2022/01/07 11:10:34;;;;;;;1.03;0.93;;;6.70;99.90;;;;;;5048433;28;20191;-73
2022/01/07 11:13:00;;;;;;;0.10;0.10;;;6.80;99.90;;;;;;5054323;28;20177;-73
2022/01/07 11:15:26;;;;;;;0.20;0.20;;;6.90;99.90;;;;;;5036954;28;20177;-73
2022/01/07 11:17:52;;;;;;;0.00;0.00;;;7.00;99.90;;;;;;5054783;28;20560;-73
2022/01/07 11:20:24;;;;;;;0.10;0.10;;;7.30;99.90;;;;;;5051270;28;20177;-75
2022/01/07 11:22:50;;;;;;;0.00;0.00;;;7.30;99.90;;;;;;5053228;28;20185;-72
2022/01/07 11:25:17;;;;;;;0.57;0.40;;;7.00;99.90;;;;;;5053817;28;20188;-73
2022/01/07 11:27:56;;;;;;;0.03;0.03;;;7.30;99.90;;;;;;5054320;28;20189;-72
2022/01/07 11:30:26;;;;;;;0.00;0.00;;;7.30;99.90;;;;;;5054312;28;20173;-73
2022/01/07 11:32:52;;;;;;;0.00;0.00;;;7.10;99.90;;;;;;5053721;28;20173;-73
2022/01/07 11:35:21;;;;;;;0.30;0.30;;;6.80;99.90;;;;;;5034102;28;20269;-73
2022/01/07 11:37:55;;;;;;;0.00;0.00;;;6.90;99.90;;;;;;5054426;28;20223;-73
2022/01/07 11:40:32;;;;;;;0.00;0.00;;;7.20;99.90;;;;;;5053940;28;20552;-72
2022/01/07 11:43:13;;;;;;;0.70;0.70;;;7.00;99.90;;;;;;5052994;28;20199;-72
2022/01/07 11:45:40;;;;;;;0.37;0.37;;;6.70;99.90;;;;;;5053459;28;20259;-73
2022/01/07 11:48:14;;;;;;;0.13;0.13;;;6.50;99.90;;;;;;5053512;28;20709;-73
2022/01/07 11:50:55;;;;;;;0.10;0.10;;;6.20;99.90;;;;;;5032743;28;20240;-73
2022/01/07 11:53:28;;;;;;;0.00;0.00;;;6.10;99.90;;;;;;5052114;28;20184;-73
2022/01/07 11:56:04;;;;;;;0.00;0.00;;;6.00;99.90;;;;;;5054038;28;20207;-73
2022/01/07 11:58:55;;;;;;;0.00;0.00;;;5.90;99.90;;;;;;5054044;28;20192;-74
2022/01/07 12:01:37;;;;;;;0.00;0.00;;;5.90;99.90;;;;;;5053744;28;20169;-73
2022/01/07 12:04:19;;;;;;;0.50;0.50;;;5.90;99.90;;;;;;5054542;28;20192;-74
2022/01/07 12:06:46;;;;;;;0.13;0.13;;;5.90;99.90;;;;;;5047452;28;20204;-73
2022/01/07 12:09:21;;;;;;;0.73;0.47;;;5.90;99.90;;;;;;5035727;28;20287;-73
2022/01/07 12:11:53;;;;;;;0.10;0.10;;;5.90;99.90;;;;;;5053756;28;20189;-74
2022/01/07 12:14:33;;;;;;;0.10;0.10;;;5.90;99.90;;;;;;5054036;28;20256;-74
2022/01/07 12:17:00;;;;;;;0.53;0.53;;;5.90;99.90;;;;;;5053208;28;20165;-73
2022/01/07 12:19:26;;;;;;;0.20;0.20;;;5.90;99.90;;;;;;5053747;28;20231;-73
2022/01/07 12:21:54;;;;;;;0.00;0.00;;;5.80;99.90;;;;;;5053702;28;20181;-74
2022/01/07 12:24:28;;;;;;;0.10;0.10;;;5.80;99.90;;;;;;5053575;28;20177;-73
2022/01/07 12:27:14;;;;;;;10.40;0.63;;;5.80;99.90;;;;;;5053026;28;20193;-73
2022/01/07 12:29:44;;;;;;;2.80;1.90;;;5.80;99.90;;;;;;5053254;28;20173;-74
2022/01/07 12:32:12;;;;;;;0.07;0.07;;;5.80;99.90;;;;;;5052668;28;20254;-73
2022/01/07 12:34:40;;;;;;;0.33;0.33;;;5.80;99.90;;;;;;5032445;28;20205;-73
2022/01/07 12:37:08;;;;;;;0.30;0.30;;;6.00;99.90;;;;;;5052323;28;20243;-73
2022/01/07 12:39:40;;;;;;;0.27;0.27;;;6.10;99.90;;;;;;5062866;22;20320;-75
2022/01/07 12:42:09;;;;;;;0.20;0.20;;;6.20;99.90;;;;;;5037347;28;20245;-75
2022/01/07 12:44:37;;;;;;;0.30;0.30;;;6.20;99.90;;;;;;5038571;28;20182;-78
2022/01/07 12:47:04;;;;;;;0.57;0.57;;;6.20;99.90;;;;;;5038838;28;20719;-76
2022/01/07 12:49:36;;;;;;;0.20;0.20;;;6.10;99.90;;;;;;5038724;28;20197;-76
2022/01/07 12:52:17;;;;;;;0.17;0.17;;;6.10;99.90;;;;;;5038325;28;20261;-76
2022/01/07 12:54:50;;;;;;;0.20;0.20;;;6.10;99.90;;;;;;5038475;28;20170;-75
2022/01/07 12:57:56;;;;;;;4.80;1.30;;;6.10;99.90;;;;;;5037874;28;20174;-75
2022/01/07 13:00:35;;;;;;;0.10;0.10;;;6.10;99.90;;;;;;5020433;28;20526;-76
2022/01/07 13:03:11;;;;;;;0.10;0.10;;;6.10;99.90;;;;;;5037333;28;20261;-75
2022/01/07 13:05:41;;;;;;;0.87;0.70;;;6.00;99.90;;;;;;5030492;28;20173;-76
2022/01/07 13:08:15;;;;;;;0.00;0.00;;;6.00;99.90;;;;;;5020347;28;20202;-76
2022/01/07 13:10:43;;;;;;;0.10;0.10;;;5.90;99.90;;;;;;5033290;28;20651;-76